createdAt,value
2023-04-16T00:01:07.165Z,12.51
2023-04-16T00:03:35.317Z,12.02
2023-04-16T00:06:03.300Z,11.68
2023-04-16T00:08:31.454Z,11.41
2023-04-16T00:10:59.245Z,11.18
2023-04-16T00:13:28.109Z,11.00
2023-04-16T00:15:55.900Z,10.83
2023-04-16T00:18:23.657Z,10.69
2023-04-16T00:20:51.320Z,10.57
2023-04-16T00:23:19.087Z,10.46
2023-04-16T00:25:46.749Z,10.37
2023-04-16T00:28:14.541Z,10.31
2023-04-16T00:30:42.309Z,10.24
2023-04-16T00:33:10.246Z,10.75
2023-04-16T00:35:38.005Z,13.49
2023-04-16T00:38:05.665Z,15.21
2023-04-16T00:40:33.330Z,14.43
2023-04-16T00:43:01.000Z,13.40
2023-04-16T00:45:28.653Z,12.71
2023-04-16T00:47:57.138Z,12.24
2023-04-16T00:50:26.023Z,11.92
2023-04-16T00:52:53.684Z,11.63
2023-04-16T00:55:21.657Z,11.41
2023-04-16T00:57:49.321Z,11.22
2023-04-16T01:00:16.974Z,11.05
2023-04-16T01:02:44.743Z,10.88
2023-04-16T01:05:12.708Z,10.73
2023-04-16T01:07:40.479Z,10.60
2023-04-16T01:10:08.136Z,10.47
2023-04-16T01:12:36.007Z,10.36
2023-04-16T01:15:03.670Z,10.25
2023-04-16T01:17:31.367Z,10.16
2023-04-16T01:19:59.302Z,10.08
2023-04-16T01:22:27.062Z,10.00
2023-04-16T01:24:54.700Z,10.50
2023-04-16T01:27:22.388Z,13.25
2023-04-16T01:29:50.061Z,15.01
2023-04-16T01:32:17.914Z,14.20
2023-04-16T01:34:45.683Z,13.13
2023-04-16T01:37:13.454Z,12.41
2023-04-16T01:39:41.241Z,11.91
2023-04-16T01:42:08.978Z,11.53
2023-04-16T01:44:36.792Z,11.21
2023-04-16T01:47:04.698Z,10.96
2023-04-16T01:49:32.469Z,10.76
2023-04-16T01:52:00.234Z,10.56
2023-04-16T01:54:27.997Z,10.36
2023-04-16T01:56:55.879Z,10.16
2023-04-16T01:59:23.632Z,9.97
2023-04-16T02:01:51.646Z,9.78
2023-04-16T02:04:19.470Z,9.61
2023-04-16T02:06:47.132Z,10.07
2023-04-16T02:09:14.889Z,12.80
2023-04-16T02:11:42.553Z,14.56
2023-04-16T02:14:10.218Z,13.73
2023-04-16T02:16:38.116Z,12.66
2023-04-16T02:19:05.941Z,11.92
2023-04-16T02:21:34.115Z,11.43
2023-04-16T02:24:01.875Z,11.06
2023-04-16T02:26:29.949Z,10.74
2023-04-16T02:28:57.609Z,10.45
2023-04-16T02:31:25.301Z,10.21
2023-04-16T02:33:52.958Z,10.03
2023-04-16T02:36:20.770Z,9.88
2023-04-16T02:38:48.669Z,9.73
2023-04-16T02:41:16.427Z,9.62
2023-04-16T02:43:44.296Z,9.52
2023-04-16T02:46:12.087Z,9.42
2023-04-16T02:48:39.828Z,9.94
2023-04-16T02:51:07.497Z,12.77
2023-04-16T02:53:35.254Z,14.53
2023-04-16T02:56:03.019Z,13.68
2023-04-16T02:58:30.792Z,12.59
2023-04-16T03:00:58.591Z,11.85
2023-04-16T03:03:26.351Z,11.34
2023-04-16T03:05:54.179Z,10.98
2023-04-16T03:08:21.847Z,10.69
2023-04-16T03:10:49.599Z,10.43
2023-04-16T03:13:17.365Z,10.20
2023-04-16T03:15:45.003Z,10.01
2023-04-16T03:18:12.790Z,9.85
2023-04-16T03:20:40.758Z,9.70
2023-04-16T03:23:08.425Z,9.56
2023-04-16T03:25:36.803Z,9.44
2023-04-16T03:28:05.282Z,9.33
2023-04-16T03:30:33.046Z,9.82
2023-04-16T03:33:01.467Z,12.62
2023-04-16T03:35:29.396Z,14.35
2023-04-16T03:37:57.158Z,13.51
2023-04-16T03:40:24.823Z,12.43
2023-04-16T03:42:52.481Z,11.71
2023-04-16T03:45:20.245Z,11.22
2023-04-16T03:47:52.852Z,10.86
2023-04-16T03:50:20.791Z,10.55
2023-04-16T03:52:49.579Z,10.27
2023-04-16T03:55:17.344Z,10.04
2023-04-16T03:57:45.218Z,9.83
2023-04-16T04:00:12.987Z,9.64
2023-04-16T04:02:40.764Z,9.50
2023-04-16T04:05:08.716Z,9.38
2023-04-16T04:07:36.575Z,9.27
2023-04-16T04:10:04.293Z,9.17
2023-04-16T04:12:32.100Z,9.68
2023-04-16T04:14:59.869Z,12.52
2023-04-16T04:17:27.659Z,14.39
2023-04-16T04:22:28.177Z,12.46
2023-04-16T04:24:55.844Z,11.72
2023-04-16T04:27:23.606Z,11.24
2023-04-16T04:29:51.260Z,10.89
2023-04-16T04:32:19.073Z,10.62
2023-04-16T04:34:46.796Z,10.41
2023-04-16T04:37:14.459Z,10.22
2023-04-16T04:39:42.218Z,10.05
2023-04-16T04:42:09.881Z,9.91
2023-04-16T04:44:37.573Z,9.76
2023-04-16T04:47:05.303Z,9.63
2023-04-16T04:49:32.921Z,9.53
2023-04-16T04:52:01.960Z,10.04
2023-04-16T04:54:29.621Z,12.91
2023-04-16T04:56:57.384Z,14.69
2023-04-16T04:59:25.154Z,13.83
2023-04-16T05:01:52.840Z,12.76
2023-04-16T05:04:20.630Z,12.04
2023-04-16T05:06:48.336Z,11.57
2023-04-16T05:09:16.308Z,11.24
2023-04-16T05:11:43.972Z,10.99
2023-04-16T05:14:11.632Z,10.80
2023-04-16T05:16:39.348Z,10.62
2023-04-16T05:19:07.318Z,10.48
2023-04-16T05:21:35.133Z,10.35
2023-04-16T05:24:02.789Z,10.23
2023-04-16T05:26:30.662Z,10.12
2023-04-16T05:28:58.422Z,10.03
2023-04-16T05:31:26.227Z,9.93
2023-04-16T05:33:54.054Z,10.37
2023-04-16T05:36:21.817Z,13.12
2023-04-16T05:38:49.478Z,14.98
2023-04-16T05:41:17.138Z,14.25
2023-04-16T05:43:44.903Z,13.21
2023-04-16T05:46:12.599Z,12.52
2023-04-16T05:48:40.348Z,12.08
2023-04-16T05:51:07.990Z,11.77
2023-04-16T05:53:35.754Z,11.53
2023-04-16T05:56:03.516Z,11.31
2023-04-16T05:58:31.175Z,11.13
2023-04-16T06:00:58.850Z,10.97
2023-04-16T06:03:26.641Z,10.85
2023-04-16T06:05:54.558Z,10.74
2023-04-16T06:08:22.544Z,11.26
2023-04-16T06:10:50.203Z,14.00
2023-04-16T06:13:18.176Z,15.63
2023-04-16T06:15:45.880Z,14.81
2023-04-16T06:18:13.687Z,13.68
2023-04-16T06:20:41.467Z,12.95
2023-04-16T06:23:09.129Z,12.46
2023-04-16T06:25:36.789Z,12.12
2023-04-16T06:28:04.453Z,11.88
2023-04-16T06:30:32.115Z,11.69
2023-04-16T06:32:59.967Z,11.53
2023-04-16T06:35:27.845Z,11.40
2023-04-16T06:37:55.814Z,11.27
2023-04-16T06:40:23.480Z,12.27
2023-04-16T06:42:51.254Z,15.11
2023-04-16T06:45:19.002Z,16.20
2023-04-16T06:47:48.276Z,15.17
2023-04-16T06:50:16.064Z,14.19
2023-04-16T06:52:43.831Z,13.53
2023-04-16T06:55:11.491Z,13.11
2023-04-16T06:57:40.905Z,12.81
2023-04-16T07:00:08.660Z,12.57
2023-04-16T07:02:36.578Z,12.40
2023-04-16T07:05:04.829Z,12.25
2023-04-16T07:07:32.581Z,12.12
2023-04-16T07:10:00.573Z,12.00
2023-04-16T07:12:28.306Z,11.91
2023-04-16T07:14:55.960Z,11.84
2023-04-16T07:17:23.625Z,11.78
2023-04-16T07:19:51.288Z,13.01
2023-04-16T07:22:19.153Z,15.82
2023-04-16T07:24:46.819Z,16.57
2023-04-16T07:27:14.475Z,15.50
2023-04-16T07:29:42.236Z,14.66
2023-04-16T07:32:10.032Z,14.06
2023-04-16T07:34:38.391Z,13.68
2023-04-16T07:37:06.359Z,13.42
2023-04-16T07:39:34.012Z,13.21
2023-04-16T07:42:02.302Z,13.04
2023-04-16T07:44:29.958Z,12.91
2023-04-16T07:46:57.641Z,12.78
2023-04-16T07:49:25.378Z,12.67
2023-04-16T07:51:53.039Z,12.59
2023-04-16T07:54:21.067Z,12.50
2023-04-16T07:56:48.772Z,12.44
2023-04-16T07:59:22.915Z,12.40
2023-04-16T08:01:52.006Z,12.40
2023-04-16T08:04:25.527Z,13.92
2023-04-16T08:06:53.965Z,16.25
2023-04-16T08:09:21.825Z,15.90
2023-04-16T08:11:50.112Z,15.10
2023-04-16T08:14:17.993Z,14.54
2023-04-16T08:16:45.632Z,14.18
2023-04-16T08:19:13.485Z,13.92
2023-04-16T08:21:41.231Z,13.75
2023-04-16T08:24:08.929Z,13.61
2023-04-16T08:26:36.687Z,13.50
2023-04-16T08:29:04.354Z,13.39
2023-04-16T08:31:32.100Z,13.30
2023-04-16T08:34:02.101Z,13.24
2023-04-16T08:36:29.799Z,13.20
2023-04-16T08:38:57.562Z,13.17
2023-04-16T08:41:25.533Z,13.15
2023-04-16T08:43:53.187Z,13.13
2023-04-16T08:46:20.962Z,13.12
2023-04-16T08:48:48.715Z,13.12
2023-04-16T08:51:16.479Z,13.15
2023-04-16T08:53:44.146Z,13.16
2023-04-16T08:56:11.904Z,13.19
2023-04-16T08:58:39.593Z,13.24
2023-04-16T09:01:07.329Z,13.30
2023-04-16T09:03:36.526Z,13.36
2023-04-16T09:06:04.652Z,13.41
2023-04-16T09:08:32.463Z,13.47
2023-04-16T09:11:00.146Z,13.53
2023-04-16T09:13:27.891Z,13.59
2023-04-16T09:15:57.397Z,13.67
2023-04-16T09:18:25.160Z,13.75
2023-04-16T09:20:52.925Z,13.83
2023-04-16T09:23:20.690Z,13.91
2023-04-16T09:25:48.355Z,14.01
2023-04-16T09:28:16.116Z,14.09
2023-04-16T09:30:43.797Z,14.18
2023-04-16T09:33:11.541Z,14.24
2023-04-16T09:35:39.209Z,14.31
2023-04-16T09:38:06.972Z,14.32
2023-04-16T09:40:34.629Z,14.32
2023-04-16T09:43:02.323Z,14.37
2023-04-16T09:45:30.216Z,14.44
2023-04-16T09:47:57.994Z,14.53
2023-04-16T09:50:25.788Z,14.61
2023-04-16T09:52:53.561Z,14.67
2023-04-16T09:55:21.318Z,14.67
2023-04-16T09:57:48.987Z,14.65
2023-04-16T10:00:16.745Z,14.60
2023-04-16T10:02:44.588Z,14.54
2023-04-16T10:05:12.684Z,14.50
2023-04-16T10:07:40.655Z,14.47
2023-04-16T10:10:08.316Z,14.44
2023-04-16T10:12:36.088Z,14.44
2023-04-16T10:15:04.153Z,14.51
2023-04-16T10:17:31.837Z,14.58
2023-04-16T10:20:00.107Z,14.60
2023-04-16T10:22:28.058Z,14.57
2023-04-16T10:24:55.816Z,14.54
2023-04-16T10:27:23.593Z,14.53
2023-04-16T10:29:51.346Z,14.53
2023-04-16T10:32:21.092Z,14.53
2023-04-16T10:34:48.924Z,14.57
2023-04-16T10:37:18.329Z,14.62
2023-04-16T10:39:46.302Z,14.62
2023-04-16T10:42:14.055Z,14.61
2023-04-16T10:44:44.297Z,14.60
2023-04-16T10:47:13.186Z,14.63
2023-04-16T10:49:41.237Z,14.65
2023-04-16T10:52:09.105Z,14.72
2023-04-16T10:54:41.588Z,14.85
2023-04-16T10:57:09.387Z,15.00
2023-04-16T10:59:37.184Z,15.12
2023-04-16T11:02:04.938Z,15.22
2023-04-16T11:04:32.826Z,15.29
2023-04-16T11:07:00.708Z,15.30
2023-04-16T11:09:28.381Z,15.30
2023-04-16T11:11:56.236Z,15.35
2023-04-16T11:14:23.896Z,15.42
2023-04-16T11:16:51.568Z,15.47
2023-04-16T11:19:19.221Z,15.51
2023-04-16T11:21:47.082Z,15.58
2023-04-16T11:24:14.750Z,15.72
2023-04-16T11:26:42.419Z,15.87
2023-04-16T11:29:10.242Z,16.00
2023-04-16T11:31:38.308Z,16.12
2023-04-16T11:34:08.597Z,16.25
2023-04-16T11:36:36.331Z,16.39
2023-04-16T11:39:03.990Z,16.54
2023-04-16T11:41:31.656Z,16.70
2023-04-16T11:43:59.317Z,16.84
2023-04-16T11:46:27.940Z,16.96
2023-04-16T11:48:56.346Z,17.08
2023-04-16T11:51:24.312Z,17.16
2023-04-16T11:53:56.362Z,17.21
2023-04-16T11:56:24.179Z,17.29
2023-04-16T11:58:51.843Z,17.35
2023-04-16T12:01:19.504Z,17.43
2023-04-16T12:03:49.973Z,17.48
2023-04-16T12:06:17.797Z,17.49
2023-04-16T12:08:45.565Z,17.49
2023-04-16T12:11:13.231Z,17.50
2023-04-16T12:13:40.891Z,17.51
2023-04-16T12:16:08.653Z,17.54
2023-04-16T12:18:36.928Z,17.58
2023-04-16T12:21:04.693Z,17.63
2023-04-16T12:23:32.360Z,17.66
2023-04-16T12:26:02.706Z,17.65
2023-04-16T12:28:31.390Z,17.61
2023-04-16T12:30:59.170Z,17.59
2023-04-16T12:33:26.992Z,17.63
2023-04-16T12:35:55.175Z,17.66
2023-04-16T12:38:24.617Z,17.68
2023-04-16T12:40:52.650Z,17.68
2023-04-16T12:43:20.301Z,17.67
2023-04-16T12:45:47.999Z,17.64
2023-04-16T12:48:15.846Z,17.58
2023-04-16T12:50:44.706Z,17.51
2023-04-16T12:53:12.586Z,17.46
2023-04-16T12:55:40.212Z,17.45
2023-04-16T12:58:08.978Z,17.47
2023-04-16T13:00:38.237Z,17.50
2023-04-16T13:03:06.194Z,17.55
2023-04-16T13:05:33.969Z,17.60
2023-04-16T13:08:01.633Z,17.63
2023-04-16T13:10:29.403Z,17.64
2023-04-16T13:12:57.265Z,17.67
2023-04-16T13:15:25.035Z,17.70
2023-04-16T13:17:52.762Z,17.68
2023-04-16T13:20:22.476Z,17.63
2023-04-16T13:22:52.005Z,17.58
2023-04-16T13:25:19.676Z,17.53
2023-04-16T13:27:47.328Z,17.50
2023-04-16T13:30:15.097Z,17.52
2023-04-16T13:32:42.886Z,17.57
2023-04-16T13:35:10.949Z,17.63
2023-04-16T13:37:38.700Z,17.69
2023-04-16T13:40:06.556Z,17.73
2023-04-16T13:42:34.324Z,17.75
2023-04-16T13:45:02.416Z,17.78
2023-04-16T13:47:30.382Z,17.84
2023-04-16T13:49:58.140Z,17.90
2023-04-16T13:52:25.896Z,17.93
2023-04-16T13:54:53.551Z,17.89
2023-04-16T13:57:21.313Z,17.86
2023-04-16T13:59:49.076Z,17.84
2023-04-16T14:02:16.768Z,17.85
2023-04-16T14:04:44.503Z,17.87
2023-04-16T14:07:12.165Z,17.90
2023-04-16T14:09:39.828Z,17.94
2023-04-16T14:12:07.617Z,17.96
2023-04-16T14:14:35.367Z,17.98
2023-04-16T14:17:03.531Z,18.00
2023-04-16T14:19:32.934Z,18.00
2023-04-16T14:22:00.912Z,18.00
2023-04-16T14:24:28.662Z,17.98
2023-04-16T14:26:56.326Z,17.98
2023-04-16T14:29:23.993Z,17.98
2023-04-16T14:31:51.805Z,17.98
2023-04-16T14:34:19.624Z,17.95
2023-04-16T14:36:49.326Z,17.90
2023-04-16T14:39:17.703Z,17.86
2023-04-16T14:41:45.365Z,17.83
2023-04-16T14:44:13.037Z,17.81
2023-04-16T14:46:41.308Z,17.79
2023-04-16T14:49:11.932Z,17.73
2023-04-16T14:51:40.641Z,17.70
2023-04-16T14:54:08.392Z,17.69
2023-04-16T14:56:36.355Z,17.67
2023-04-16T14:59:04.124Z,17.68
2023-04-16T15:01:32.364Z,17.70
2023-04-16T15:04:01.971Z,17.70
2023-04-16T15:06:30.450Z,17.70
2023-04-16T15:08:58.154Z,17.69
2023-04-16T15:11:25.910Z,17.70
2023-04-16T15:13:53.676Z,17.72
2023-04-16T15:16:21.704Z,17.74
2023-04-16T15:18:50.278Z,17.72
2023-04-16T15:21:18.096Z,17.71
2023-04-16T15:23:45.858Z,17.70
2023-04-16T15:26:13.624Z,17.69
2023-04-16T15:28:41.592Z,17.68
2023-04-16T15:31:09.397Z,17.64
2023-04-16T15:33:37.034Z,17.57
2023-04-16T15:36:04.788Z,17.49
2023-04-16T15:38:32.553Z,17.44
2023-04-16T15:41:01.351Z,17.38
2023-04-16T15:43:30.025Z,17.35
2023-04-16T15:45:57.943Z,17.33
2023-04-16T15:48:25.960Z,17.30
2023-04-16T15:50:53.727Z,17.27
2023-04-16T15:53:21.384Z,17.25
2023-04-16T15:55:52.678Z,17.24
2023-04-16T15:58:21.225Z,17.24
2023-04-16T16:00:50.414Z,17.26
2023-04-16T16:03:18.398Z,17.29
2023-04-16T16:05:46.554Z,17.32
2023-04-16T16:08:14.216Z,17.31
2023-04-16T16:10:42.088Z,17.29
2023-04-16T16:13:13.333Z,17.35
2023-04-16T16:15:41.614Z,17.44
2023-04-16T16:18:09.387Z,17.53
2023-04-16T16:20:37.549Z,17.70
2023-04-16T16:23:05.322Z,17.93
2023-04-16T16:25:33.076Z,18.06
2023-04-16T16:28:00.846Z,18.08
2023-04-16T16:30:28.598Z,18.08
2023-04-16T16:32:56.484Z,18.05
2023-04-16T16:35:24.641Z,18.02
2023-04-16T16:37:57.424Z,18.02
2023-04-16T16:40:25.081Z,18.13
2023-04-16T16:42:52.986Z,18.38
2023-04-16T16:45:20.818Z,18.63
2023-04-16T16:47:49.242Z,18.79
2023-04-16T16:50:17.159Z,18.84
2023-04-16T16:52:44.928Z,18.81
2023-04-16T16:55:12.700Z,18.70
2023-04-16T16:57:40.461Z,18.56
2023-04-16T17:00:19.918Z,18.40
2023-04-16T17:02:48.836Z,18.17
2023-04-16T17:05:16.857Z,17.94
2023-04-16T17:07:44.630Z,17.73
2023-04-16T17:10:13.508Z,17.52
2023-04-16T17:12:41.190Z,17.33
2023-04-16T17:15:08.936Z,17.17
2023-04-16T17:17:37.059Z,17.05
2023-04-16T17:20:10.205Z,16.93
2023-04-16T17:22:37.964Z,16.80
2023-04-16T17:25:05.728Z,16.69
2023-04-16T17:27:34.525Z,16.57
2023-04-16T17:30:02.290Z,16.45
2023-04-16T17:32:30.295Z,16.34
2023-04-16T17:34:58.123Z,16.24
2023-04-16T17:37:26.186Z,16.14
2023-04-16T17:39:53.956Z,16.04
2023-04-16T17:42:22.034Z,15.94
2023-04-16T17:44:49.888Z,15.84
2023-04-16T17:47:17.657Z,15.75
2023-04-16T17:49:45.620Z,15.65
2023-04-16T17:52:13.391Z,15.56
2023-04-16T17:54:41.253Z,15.48
2023-04-16T17:57:09.117Z,15.39
2023-04-16T17:59:37.291Z,15.30
2023-04-16T18:02:05.188Z,15.21
2023-04-16T18:04:33.311Z,15.14
2023-04-16T18:07:01.297Z,15.06
2023-04-16T18:09:29.269Z,14.98
2023-04-16T18:11:59.695Z,14.91
2023-04-16T18:14:27.774Z,14.84
2023-04-16T18:16:55.432Z,14.77
2023-04-16T18:19:23.101Z,14.71
2023-04-16T18:21:50.852Z,14.65
2023-04-16T18:24:18.523Z,14.58
2023-04-16T18:26:47.113Z,14.51
2023-04-16T18:29:15.220Z,14.44
2023-04-16T18:31:43.527Z,14.38
2023-04-16T18:34:12.547Z,14.32
2023-04-16T18:36:40.623Z,14.25
2023-04-16T18:39:08.479Z,14.19
2023-04-16T18:41:36.751Z,14.13
2023-04-16T18:44:04.511Z,14.08
2023-04-16T18:46:32.333Z,14.02
2023-04-16T18:49:00.357Z,13.95
2023-04-16T18:51:28.118Z,13.90
2023-04-16T18:53:55.788Z,13.84
2023-04-16T18:56:23.437Z,13.79
2023-04-16T18:58:51.200Z,13.75
2023-04-16T19:01:18.923Z,13.71
2023-04-16T19:03:46.747Z,13.68
2023-04-16T19:06:14.504Z,13.64
2023-04-16T19:08:42.167Z,13.60
2023-04-16T19:11:09.920Z,13.56
2023-04-16T19:13:38.814Z,13.49
2023-04-16T19:16:11.438Z,13.44
2023-04-16T19:18:39.774Z,13.38
2023-04-16T19:21:07.562Z,13.36
2023-04-16T19:23:35.402Z,13.34
2023-04-16T19:26:03.062Z,13.32
2023-04-16T19:28:32.872Z,13.27
2023-04-16T19:31:00.743Z,13.24
2023-04-16T19:33:28.709Z,13.20
2023-04-16T19:35:56.473Z,13.16
2023-04-16T19:38:24.238Z,13.12
2023-04-16T19:40:52.004Z,13.09
2023-04-16T19:43:19.665Z,13.07
2023-04-16T19:45:47.577Z,13.04
2023-04-16T19:48:15.400Z,13.03
2023-04-16T19:50:43.123Z,13.02
2023-04-16T19:53:11.142Z,12.99
2023-04-16T19:55:38.998Z,12.98
2023-04-16T19:58:07.056Z,12.96
2023-04-16T20:00:35.346Z,12.93
2023-04-16T20:03:03.062Z,12.90
2023-04-16T20:05:30.880Z,12.87
2023-04-16T20:07:58.633Z,12.84
2023-04-16T20:10:26.810Z,12.81
2023-04-16T20:12:54.480Z,12.76
2023-04-16T20:15:22.541Z,12.72
2023-04-16T20:17:50.614Z,12.68
2023-04-16T20:20:18.485Z,12.63
2023-04-16T20:22:46.350Z,12.58
2023-04-16T20:25:14.618Z,12.54
2023-04-16T20:27:42.281Z,12.49
2023-04-16T20:30:09.943Z,12.44
2023-04-16T20:32:37.720Z,12.41
2023-04-16T20:35:10.344Z,12.37
2023-04-16T20:37:42.463Z,12.34
2023-04-16T20:40:11.093Z,12.31
2023-04-16T20:42:39.006Z,12.29
2023-04-16T20:45:07.482Z,12.29
2023-04-16T20:47:35.293Z,12.28
2023-04-16T20:50:03.222Z,12.28
2023-04-16T20:52:31.000Z,12.27
2023-04-16T20:54:58.644Z,12.28
2023-04-16T20:57:28.253Z,12.29
2023-04-16T20:59:56.029Z,12.87
2023-04-16T21:02:24.499Z,15.61
2023-04-16T21:04:53.225Z,17.40
2023-04-16T21:07:21.461Z,16.69
2023-04-16T21:09:49.225Z,15.71
2023-04-16T21:12:16.888Z,15.06
2023-04-16T21:14:44.654Z,14.65
2023-04-16T21:17:12.411Z,14.35
2023-04-16T21:19:40.493Z,14.10
2023-04-16T21:22:08.148Z,13.91
2023-04-16T21:24:36.015Z,13.74
2023-04-16T21:27:03.676Z,13.57
2023-04-16T21:29:31.466Z,13.42
2023-04-16T21:31:59.293Z,13.27
2023-04-16T21:34:27.179Z,13.12
2023-04-16T21:36:54.845Z,12.99
2023-04-16T21:39:22.503Z,12.86
2023-04-16T21:41:50.162Z,12.75
2023-04-16T21:44:17.830Z,12.63
2023-04-16T21:46:45.717Z,13.05
2023-04-16T21:49:13.884Z,15.71
2023-04-16T21:51:43.280Z,17.41
2023-04-16T21:54:11.036Z,16.60
2023-04-16T21:56:39.001Z,15.57
2023-04-16T21:59:06.661Z,14.86
2023-04-16T22:01:34.327Z,14.38
2023-04-16T22:04:02.258Z,14.03
2023-04-16T22:06:30.052Z,13.74
2023-04-16T22:08:59.049Z,13.50
2023-04-16T22:11:26.707Z,13.28
2023-04-16T22:13:57.969Z,13.09
2023-04-16T22:16:26.009Z,12.90
2023-04-16T22:18:55.221Z,12.73
2023-04-16T22:21:22.890Z,13.10
2023-04-16T22:23:51.171Z,15.70
2023-04-16T22:26:18.926Z,17.33
2023-04-16T22:28:46.789Z,16.49
2023-04-16T22:31:14.453Z,15.43
2023-04-16T22:33:42.119Z,14.70
2023-04-16T22:36:09.775Z,14.20
2023-04-16T22:38:38.971Z,13.82
2023-04-16T22:41:06.637Z,13.53
2023-04-16T22:43:37.180Z,13.27
2023-04-16T22:46:05.037Z,13.04
2023-04-16T22:48:32.895Z,12.83
2023-04-16T22:51:00.770Z,13.20
2023-04-16T22:53:28.628Z,15.82
2023-04-16T22:55:56.597Z,17.42
2023-04-16T22:58:24.259Z,16.57
2023-04-16T23:00:56.876Z,15.47
2023-04-16T23:03:24.688Z,14.68
2023-04-16T23:05:52.464Z,14.15
2023-04-16T23:08:20.228Z,13.75
2023-04-16T23:10:47.892Z,13.44
2023-04-16T23:13:15.868Z,13.15
2023-04-16T23:15:43.979Z,12.91
2023-04-16T23:18:12.254Z,12.68
2023-04-16T23:20:40.077Z,13.05
2023-04-16T23:23:07.727Z,15.63
2023-04-16T23:25:35.498Z,17.12
2023-04-16T23:28:03.571Z,16.20
2023-04-16T23:30:31.239Z,15.11
2023-04-16T23:32:58.932Z,14.36
2023-04-16T23:35:26.771Z,13.83
2023-04-16T23:37:54.422Z,13.43
2023-04-16T23:40:22.085Z,13.11
2023-04-16T23:42:49.722Z,12.83
2023-04-16T23:45:17.421Z,12.58
2023-04-16T23:47:45.511Z,12.90
2023-04-16T23:50:13.350Z,15.45
2023-04-16T23:52:41.112Z,17.01
2023-04-16T23:55:08.773Z,16.13
2023-04-16T23:57:36.434Z,15.04
